Time;durP1;ratioP1;P1;durP2;ratioP2;P2;SDS_P1;SDS_P2;PMS_P1;PMS_P2;Temp;Humidity;BMP_temperature;BMP_pressure;BME280_temperature;BME280_humidity;BME280_pressure;Samples;Min_cycle;Max_cycle;Signal;HPM_P1;HPM_P2
2021/06/20 08:54:23;;;;;;;2.78;2.20;;;;;;;27.17;54.82;99943.91;5080024;27;20394;-83
2021/06/20 08:56:50;;;;;;;3.07;2.00;;;;;;;27.51;51.85;99942.22;5010732;28;20435;-83
2021/06/20 08:59:16;;;;;;;4.60;2.10;;;;;;;27.68;49.68;99939.75;5030800;28;20449;-85
2021/06/20 09:01:41;;;;;;;6.73;2.10;;;;;;;28.06;48.55;99937.97;4990922;28;80179;-83
2021/06/20 09:04:07;;;;;;;3.00;2.00;;;;;;;28.12;48.98;99933.72;5003604;28;20413;-84
2021/06/20 09:06:33;;;;;;;2.57;1.97;;;;;;;27.97;48.14;99935.44;5021164;28;20418;-85
2021/06/20 09:09:01;;;;;;;4.18;2.40;;;;;;;27.83;48.67;99926.84;5005724;28;20892;-84
2021/06/20 09:11:33;;;;;;;2.67;1.95;;;;;;;27.70;48.50;99914.31;5028117;28;20392;-84
2021/06/20 09:14:13;;;;;;;2.47;1.75;;;;;;;27.59;49.04;99916.13;5010985;28;20466;-84
2021/06/20 09:16:54;;;;;;;4.75;1.90;;;;;;;27.59;49.01;99905.78;4993706;28;99944;-85
2021/06/20 09:19:30;;;;;;;2.42;1.58;;;;;;;27.49;49.12;99900.03;5004235;28;20742;-84
2021/06/20 09:21:57;;;;;;;4.05;2.30;;;;;;;27.79;49.56;99893.38;5000072;28;20600;-85
2021/06/20 09:24:23;;;;;;;3.90;2.88;;;;;;;28.19;47.51;99892.81;5005549;28;20505;-85
2021/06/20 09:26:53;;;;;;;6.47;2.07;;;;;;;28.43;46.67;99891.56;5007285;28;20406;-85
2021/06/20 09:29:29;;;;;;;6.03;2.03;;;;;;;28.69;45.98;99885.94;5007202;28;20417;-85
2021/06/20 09:31:55;;;;;;;6.47;2.85;;;;;;;28.74;46.00;99876.47;5039912;28;20481;-85
2021/06/20 09:34:20;;;;;;;3.83;2.15;;;;;;;28.40;46.62;99867.22;5006297;28;20414;-85
2021/06/20 09:36:46;;;;;;;4.45;2.03;;;;;;;27.88;48.00;99856.94;5033050;28;20895;-85
2021/06/20 09:39:23;;;;;;;6.82;2.40;;;;;;;27.67;50.36;99867.72;5005110;28;20462;-85
2021/06/20 09:42:02;;;;;;;4.32;2.00;;;;;;;27.80;49.00;99877.47;5007091;28;20398;-85
2021/06/20 09:44:41;;;;;;;3.75;2.50;;;;;;;27.92;49.38;99871.72;5006313;28;20409;-84
2021/06/20 09:47:12;;;;;;;7.40;2.63;;;;;;;27.79;48.29;99864.75;4998568;28;20556;-84
2021/06/20 09:49:37;;;;;;;5.72;1.92;;;;;;;27.58;49.99;99865.22;5003898;28;20496;-83
2021/06/20 09:52:03;;;;;;;5.17;2.37;;;;;;;27.36;51.34;99842.94;5020824;28;20568;-84
2021/06/20 09:54:31;;;;;;;3.47;2.03;;;;;;;27.06;51.52;99824.16;5039105;28;20428;-84
2021/06/20 09:56:56;;;;;;;8.38;2.20;;;;;;;27.05;52.08;99833.66;5007756;28;20762;-84
2021/06/20 09:59:28;;;;;;;4.80;2.07;;;;;;;27.59;51.11;99841.78;5007354;28;20410;-84
2021/06/20 10:01:53;;;;;;;3.03;2.10;;;;;;;28.28;48.85;99839.63;5007859;28;20881;-83
2021/06/20 10:04:19;;;;;;;2.58;2.10;;;;;;;28.73;47.75;99838.59;5000621;28;20426;-84
2021/06/20 10:06:44;;;;;;;8.38;2.88;;;;;;;29.10;46.61;99824.63;5009442;28;20423;-84
2021/06/20 10:09:10;;;;;;;4.97;2.50;;;;;;;30.13;44.14;99824.25;4993046;28;20414;-85
2021/06/20 10:11:35;;;;;;;3.40;2.23;;;;;;;30.54;43.28;99822.06;4993918;28;20402;-85
2021/06/20 10:14:00;;;;;;;4.90;2.60;;;;;;;30.36;43.21;99830.34;4993519;28;20426;-85
2021/06/20 10:16:30;;;;;;;4.97;2.30;;;;;;;30.00;43.37;99827.78;4994019;28;20444;-85
2021/06/20 10:19:11;;;;;;;3.30;2.05;;;;;;;30.05;44.75;99824.59;4994720;28;20490;-85
2021/06/20 10:21:41;;;;;;;2.70;1.80;;;;;;;30.36;43.23;99826.78;4994723;28;20429;-85
2021/06/20 10:24:16;;;;;;;3.73;2.10;;;;;;;30.54;43.51;99832.44;4986036;28;20907;-84
2021/06/20 10:26:55;;;;;;;4.32;2.08;;;;;;;30.43;43.88;99824.03;4997609;28;20445;-84
2021/06/20 10:29:38;;;;;;;2.95;1.90;;;;;;;30.44;44.18;99808.06;4994061;28;20460;-84
2021/06/20 10:32:16;;;;;;;879.00;663.78;;;;;;;30.84;41.89;99802.97;4993440;28;20513;-93
2021/06/20 10:34:52;;;;;;;7.30;2.10;;;;;;;31.75;41.59;99800.63;4992902;28;20414;-94
2021/06/20 10:37:20;;;;;;;9.00;2.45;;;;;;;34.70;36.38;99812.94;4994821;28;20839;-83
2021/06/20 10:39:48;;;;;;;8.40;2.80;;;;;;;35.98;33.55;99817.28;4994187;28;20449;-84
2021/06/20 10:42:13;;;;;;;5.85;2.00;;;;;;;35.41;33.24;99812.66;4991661;28;20893;-85
2021/06/20 10:44:50;;;;;;;2.72;2.00;;;;;;;34.08;34.12;99801.22;4948982;28;20552;-84
2021/06/20 10:47:35;;;;;;;5.03;2.00;;;;;;;32.86;37.31;99797.84;4977055;28;20895;-86
2021/06/20 10:50:06;;;;;;;5.13;2.23;;;;;;;32.07;39.98;99795.00;5005990;28;20407;-84
2021/06/20 10:52:31;;;;;;;5.97;2.13;;;;;;;31.45;40.48;99801.03;4990332;28;20448;-85
2021/06/20 10:55:06;;;;;;;3.97;2.13;;;;;;;31.32;40.74;99799.84;4982393;28;20449;-85
2021/06/20 10:57:32;;;;;;;8.68;2.40;;;;;;;31.39;40.73;99794.25;4993948;28;20399;-84
2021/06/20 10:59:58;;;;;;;5.80;2.07;;;;;;;32.55;38.58;99781.97;4992460;28;20406;-87
2021/06/20 11:02:30;;;;;;;6.77;1.97;;;;;;;33.72;37.70;99789.56;4988253;28;20415;-84
2021/06/20 11:04:56;;;;;;;7.28;2.90;;;;;;;35.43;34.01;99792.50;4991667;28;20416;-84
2021/06/20 11:07:23;;;;;;;4.70;2.10;;;;;;;34.80;35.81;99791.47;4992621;28;20402;-84
2021/06/20 11:09:49;;;;;;;5.80;2.10;;;;;;;33.90;37.77;99787.34;4992216;28;20482;-84
2021/06/20 11:12:15;;;;;;;5.47;2.33;;;;;;;33.29;37.56;99783.50;4991675;28;20478;-84
2021/06/20 11:14:44;;;;;;;4.05;2.53;;;;;;;32.73;39.22;99774.28;4991153;28;20413;-86
2021/06/20 11:17:10;;;;;;;4.10;2.35;;;;;;;32.27;39.41;99760.44;4980332;28;20504;-86
2021/06/20 11:19:35;;;;;;;5.57;2.40;;;;;;;31.88;40.33;99762.56;4977478;28;20556;-84
2021/06/20 11:22:03;;;;;;;5.50;2.30;;;;;;;31.68;41.31;99755.84;4991952;28;20402;-86
2021/06/20 11:24:42;;;;;;;3.47;2.58;;;;;;;31.33;41.48;99759.44;4993618;28;20878;-86
2021/06/20 11:27:15;;;;;;;4.88;2.35;;;;;;;31.47;42.74;99762.25;4985926;28;20416;-85
2021/06/20 11:29:43;;;;;;;6.57;2.03;;;;;;;32.34;40.81;99754.81;4989966;28;20410;-85
2021/06/20 11:32:28;;;;;;;4.38;2.30;;;;;;;35.01;36.67;99746.09;4985974;28;20447;-85
2021/06/20 11:34:57;;;;;;;5.15;2.40;;;;;;;35.96;32.88;99737.19;4992298;28;20414;-85
2021/06/20 11:37:27;;;;;;;5.72;2.20;;;;;;;36.53;32.76;99733.94;4991891;28;20437;-86
2021/06/20 11:39:56;;;;;;;6.30;2.73;;;;;;;37.75;30.08;99728.47;4992466;28;20418;-87
2021/06/20 11:42:27;;;;;;;2.47;2.13;;;;;;;38.98;29.01;99731.69;4990342;28;20511;-86
2021/06/20 11:45:00;;;;;;;8.00;2.67;;;;;;;39.98;27.55;99724.94;4993132;28;20501;-86
2021/06/20 11:47:27;;;;;;;4.88;2.10;;;;;;;42.19;25.04;99724.63;4993145;28;20401;-85
2021/06/20 11:49:53;;;;;;;6.85;2.47;;;;;;;43.41;22.03;99724.72;4991820;28;20390;-86
2021/06/20 11:52:22;;;;;;;3.22;2.30;;;;;;;44.04;22.12;99727.53;4988743;28;20583;-86
2021/06/20 11:54:48;;;;;;;4.93;2.28;;;;;;;44.60;21.62;99726.47;4990290;28;20460;-86
2021/06/20 11:57:13;;;;;;;4.60;2.20;;;;;;;44.60;21.68;99724.41;4992199;28;20494;-86
2021/06/20 11:59:40;;;;;;;7.23;2.10;;;;;;;44.00;22.58;99718.38;4993409;28;20425;-87
2021/06/20 12:02:10;;;;;;;5.22;2.13;;;;;;;43.50;22.95;99717.38;4991257;28;20402;-88
2021/06/20 12:04:41;;;;;;;5.28;2.38;;;;;;;43.91;22.29;99713.53;4985127;28;20460;-87
2021/06/20 12:07:09;;;;;;;5.28;2.38;;;;;;;44.55;22.61;99705.06;4988416;28;20733;-87
2021/06/20 12:09:35;;;;;;;2.88;2.10;;;;;;;45.21;21.20;99699.59;4989647;28;20398;-90
2021/06/20 12:12:04;;;;;;;4.68;2.10;;;;;;;45.82;20.07;99690.97;4985296;28;20412;-90
2021/06/20 12:14:31;;;;;;;5.35;2.30;;;;;;;45.69;20.17;99679.06;4986930;28;20932;-89
2021/06/20 12:16:58;;;;;;;3.30;2.07;;;;;;;45.74;20.54;99673.47;4989010;28;20413;-91
2021/06/20 12:19:27;;;;;;;3.30;2.00;;;;;;;45.63;21.40;99667.59;5021581;28;20417;-85
2021/06/20 12:22:04;;;;;;;6.20;2.47;;;;;;;46.41;19.82;99666.25;4992477;28;20505;-85
2021/06/20 12:24:44;;;;;;;6.95;2.60;;;;;;;45.95;19.89;99665.56;4991786;28;20406;-85
2021/06/20 12:27:10;;;;;;;7.30;2.88;;;;;;;44.19;21.65;99651.25;4991547;28;20944;-85
2021/06/20 12:29:36;;;;;;;6.22;2.55;;;;;;;44.82;21.07;99643.91;4992471;28;20472;-85
2021/06/20 12:32:06;;;;;;;7.03;3.35;;;;;;;45.33;20.94;99646.97;4991741;28;20553;-85
2021/06/20 12:34:49;;;;;;;7.45;2.70;;;;;;;45.22;19.93;99634.59;4997252;28;20914;-85
2021/06/20 12:37:15;;;;;;;10.00;2.90;;;;;;;45.31;21.00;99618.06;4992185;28;20406;-85
2021/06/20 12:39:54;;;;;;;6.20;2.80;;;;;;;45.94;20.26;99617.41;4992397;28;20398;-85
2021/06/20 12:42:25;;;;;;;7.00;2.47;;;;;;;46.44;20.10;99612.88;4991056;28;20504;-84
2021/06/20 12:44:53;;;;;;;6.20;2.70;;;;;;;45.47;20.02;99593.00;5007029;28;20452;-85
2021/06/20 12:47:33;;;;;;;6.40;2.85;;;;;;;42.64;23.66;99594.72;4992387;28;20398;-85
2021/06/20 12:50:00;;;;;;;9.75;3.65;;;;;;;41.22;25.21;99592.06;4992203;28;20754;-85
2021/06/20 12:52:30;;;;;;;7.00;2.55;;;;;;;40.24;27.33;99575.16;4989905;28;20901;-85
2021/06/20 12:54:57;;;;;;;7.32;3.20;;;;;;;39.39;27.96;99570.69;4991797;28;20912;-84
2021/06/20 12:57:25;;;;;;;8.52;3.15;;;;;;;38.05;29.02;99563.97;4989188;28;20404;-85
2021/06/20 12:59:53;;;;;;;5.53;2.30;;;;;;;37.07;32.74;99553.53;4988168;28;20418;-84
2021/06/20 13:02:21;;;;;;;4.55;2.90;;;;;;;36.68;32.01;99557.38;4984303;28;20539;-85
2021/06/20 13:04:47;;;;;;;8.52;2.80;;;;;;;36.62;33.87;99562.75;4992087;28;20398;-84
2021/06/20 13:07:12;;;;;;;9.02;2.92;;;;;;;36.80;33.06;99553.84;4991760;28;20413;-84
2021/06/20 13:09:38;;;;;;;6.13;2.43;;;;;;;37.08;32.45;99561.56;4991647;28;20399;-84
2021/06/20 13:12:03;;;;;;;12.00;3.27;;;;;;;36.81;32.83;99552.59;4991606;28;20493;-84
2021/06/20 13:14:29;;;;;;;8.95;3.10;;;;;;;36.29;33.31;99555.53;4992037;28;20877;-84
2021/06/20 13:16:55;;;;;;;12.13;3.33;;;;;;;35.84;34.83;99555.34;4987795;28;20411;-84
2021/06/20 13:19:21;;;;;;;9.73;3.20;;;;;;;35.70;34.36;99542.34;4972649;28;20400;-84
2021/06/20 13:21:48;;;;;;;10.00;3.65;;;;;;;35.35;34.06;99535.44;4972319;28;20404;-84
2021/06/20 13:24:15;;;;;;;13.45;3.60;;;;;;;35.38;34.76;99531.75;4990458;28;20584;-84
2021/06/20 13:26:41;;;;;;;9.87;2.97;;;;;;;35.94;33.71;99528.94;4991928;28;20405;-84
2021/06/20 13:29:07;;;;;;;12.90;3.00;;;;;;;38.34;32.01;99524.19;4991917;28;20395;-84
2021/06/20 13:31:33;;;;;;;9.03;3.77;;;;;;;40.18;28.63;99528.78;4991871;28;20799;-84
2021/06/20 13:33:59;;;;;;;7.85;2.92;;;;;;;39.52;29.50;99522.41;4990590;28;20413;-84
2021/06/20 13:36:25;;;;;;;7.70;3.13;;;;;;;39.11;29.15;99520.72;4991288;28;20430;-84
2021/06/20 13:38:51;;;;;;;11.57;3.10;;;;;;;39.13;29.87;99518.19;4991927;28;20751;-84
2021/06/20 13:41:17;;;;;;;7.57;3.42;;;;;;;39.25;28.63;99513.75;4995204;28;20418;-84
2021/06/20 13:43:42;;;;;;;10.90;4.23;;;;;;;38.79;29.44;99516.19;4994278;28;20406;-84
2021/06/20 13:46:09;;;;;;;9.83;2.73;;;;;;;38.66;30.36;99500.50;4994190;28;20422;-84
2021/06/20 13:48:34;;;;;;;11.98;3.42;;;;;;;38.86;30.77;99503.84;4995242;28;20758;-84
2021/06/20 13:50:59;;;;;;;10.47;3.57;;;;;;;39.50;28.08;99496.56;4994967;28;20399;-84
2021/06/20 13:53:25;;;;;;;12.10;3.88;;;;;;;39.63;27.79;99493.66;4989082;28;20484;-84
2021/06/20 13:55:50;;;;;;;10.50;3.13;;;;;;;39.53;28.73;99487.13;4975835;28;20393;-84
2021/06/20 13:58:15;;;;;;;10.07;3.60;;;;;;;39.19;28.13;99473.06;4975753;28;20434;-84
2021/06/20 14:00:42;;;;;;;9.40;3.53;;;;;;;38.62;29.24;99468.69;4975796;28;20400;-84
2021/06/20 14:03:08;;;;;;;11.32;3.42;;;;;;;38.35;29.24;99450.16;4991470;28;20441;-84
2021/06/20 14:05:34;;;;;;;12.43;4.13;;;;;;;38.05;30.18;99447.19;4994362;28;20450;-84
2021/06/20 14:07:59;;;;;;;14.07;3.80;;;;;;;37.52;30.40;99455.31;4994982;28;20892;-84
2021/06/20 14:10:24;;;;;;;9.70;3.57;;;;;;;36.70;31.88;99462.53;4995045;28;20406;-84
2021/06/20 14:12:50;;;;;;;12.00;3.67;;;;;;;35.54;32.28;99465.41;4994476;28;20504;-84
2021/06/20 14:15:18;;;;;;;15.37;4.13;;;;;;;35.08;33.97;99470.00;4994997;28;20866;-84
2021/06/20 14:17:43;;;;;;;24.27;5.95;;;;;;;34.81;34.51;99480.63;4994103;28;20563;-84
2021/06/20 14:20:09;;;;;;;17.50;3.83;;;;;;;34.63;34.39;99477.34;4994814;28;20473;-84
2021/06/20 14:22:34;;;;;;;17.77;3.92;;;;;;;34.40;35.17;99481.75;4993862;28;20407;-84
2021/06/20 14:25:00;;;;;;;22.23;4.87;;;;;;;34.26;35.77;99486.81;4993648;28;20397;-84
2021/06/20 14:27:25;;;;;;;13.37;4.13;;;;;;;34.18;35.90;99491.78;4994702;28;20405;-83
2021/06/20 14:29:50;;;;;;;15.33;4.47;;;;;;;33.98;35.42;99479.63;4994254;28;20830;-84
2021/06/20 14:32:16;;;;;;;14.33;3.47;;;;;;;33.77;36.57;99475.13;5004754;28;20419;-83
2021/06/20 14:34:41;;;;;;;21.33;4.63;;;;;;;33.61;37.28;99469.38;4994395;28;20417;-84
2021/06/20 14:37:06;;;;;;;20.00;3.87;;;;;;;33.40;37.79;99464.00;4994587;28;20399;-83
2021/06/20 14:39:31;;;;;;;14.77;4.27;;;;;;;33.20;36.81;99455.44;4993182;28;20422;-83
2021/06/20 14:41:57;;;;;;;14.83;4.23;;;;;;;32.94;37.93;99455.34;4994089;28;20395;-84
2021/06/20 14:44:22;;;;;;;19.57;4.47;;;;;;;32.60;37.91;99453.34;4994293;28;20398;-84
2021/06/20 14:46:48;;;;;;;23.50;4.67;;;;;;;32.39;38.46;99456.34;4993482;28;20414;-83
2021/06/20 14:49:14;;;;;;;22.80;4.43;;;;;;;32.21;39.98;99450.91;4997886;28;20412;-84
2021/06/20 14:51:39;;;;;;;16.35;3.90;;;;;;;32.11;40.43;99453.81;4986956;28;20406;-83
2021/06/20 14:54:05;;;;;;;18.15;4.00;;;;;;;31.96;40.55;99461.50;5008431;28;20591;-83
2021/06/20 14:56:30;;;;;;;21.35;5.30;;;;;;;31.84;40.63;99448.78;4993384;28;20410;-83
2021/06/20 14:58:55;;;;;;;20.45;4.05;;;;;;;31.72;42.41;99448.47;4993604;28;20892;-84
2021/06/20 15:01:21;;;;;;;15.70;4.03;;;;;;;31.57;41.24;99447.78;4993839;28;20417;-84
2021/06/20 15:03:46;;;;;;;17.23;4.30;;;;;;;31.43;41.15;99439.44;4993881;28;20387;-84
2021/06/20 15:06:11;;;;;;;17.92;4.03;;;;;;;31.39;41.53;99438.66;4993009;28;20422;-83
2021/06/20 15:08:37;;;;;;;18.17;4.37;;;;;;;31.31;42.38;99437.13;4993197;28;20850;-84
2021/06/20 15:11:02;;;;;;;14.80;4.18;;;;;;;31.21;42.08;99430.38;4993799;28;20398;-83
2021/06/20 15:13:28;;;;;;;13.90;4.10;;;;;;;31.10;42.30;99438.00;4992768;28;20426;-84
2021/06/20 15:15:53;;;;;;;21.80;5.60;;;;;;;31.03;43.03;99437.25;4993545;28;20901;-83
2021/06/20 15:18:20;;;;;;;19.27;5.10;;;;;;;31.00;42.38;99440.84;4993353;28;20834;-83
2021/06/20 15:20:48;;;;;;;18.48;4.40;;;;;;;31.00;41.87;99438.06;4992943;28;20885;-83
2021/06/20 15:23:13;;;;;;;16.20;4.18;;;;;;;30.96;41.93;99431.69;4993027;28;20481;-84
2021/06/20 15:25:39;;;;;;;18.40;4.03;;;;;;;30.89;41.99;99429.66;4992347;28;20398;-83
2021/06/20 15:28:04;;;;;;;19.97;4.33;;;;;;;30.85;41.60;99426.13;5025237;28;20437;-83
2021/06/20 15:30:29;;;;;;;23.00;5.30;;;;;;;30.86;41.83;99420.09;4993163;28;20870;-83
2021/06/20 15:32:57;;;;;;;21.10;4.30;;;;;;;30.86;42.68;99425.69;4992619;28;20422;-83
2021/06/20 15:35:27;;;;;;;19.48;3.78;;;;;;;30.86;42.70;99413.69;4993580;28;20734;-83
2021/06/20 15:37:58;;;;;;;20.60;5.20;;;;;;;30.91;41.96;99409.69;4992734;28;20501;-83
2021/06/20 15:40:26;;;;;;;21.65;4.50;;;;;;;30.94;41.82;99400.50;4992191;28;20402;-83
2021/06/20 15:42:52;;;;;;;17.87;4.87;;;;;;;30.91;41.38;99402.09;4992713;28;20402;-83
2021/06/20 15:45:19;;;;;;;22.90;4.70;;;;;;;30.86;41.54;99400.50;4993256;28;20750;-83
2021/06/20 15:47:52;;;;;;;27.70;5.90;;;;;;;30.85;42.01;99410.13;4991673;28;20399;-83
2021/06/20 15:50:20;;;;;;;14.60;4.10;;;;;;;30.80;44.06;99399.34;4990876;28;20425;-83
2021/06/20 15:52:45;;;;;;;20.92;5.43;;;;;;;30.73;42.53;99402.16;4992755;28;20963;-84
2021/06/20 15:55:12;;;;;;;22.10;5.10;;;;;;;30.67;43.42;99409.38;4992968;28;20398;-83
2021/06/20 15:57:42;;;;;;;15.32;3.95;;;;;;;30.52;45.16;99413.44;4991846;28;20418;-84
2021/06/20 16:00:11;;;;;;;16.53;4.17;;;;;;;30.34;44.95;99393.06;4992161;28;20413;-83
2021/06/20 16:02:36;;;;;;;18.23;4.28;;;;;;;30.19;42.99;99395.13;4992211;28;20870;-83
2021/06/20 16:05:04;;;;;;;18.90;4.70;;;;;;;30.04;43.93;99387.13;4992133;28;20501;-83
2021/06/20 16:07:29;;;;;;;18.50;5.28;;;;;;;29.91;45.35;99383.16;4992520;28;20493;-83
2021/06/20 16:09:54;;;;;;;21.87;5.20;;;;;;;29.82;47.30;99377.97;5024252;28;21020;-83
2021/06/20 16:12:20;;;;;;;22.43;5.70;;;;;;;29.71;48.11;99371.56;4992676;28;20382;-83
2021/06/20 16:14:46;;;;;;;19.13;4.90;;;;;;;29.42;48.94;99373.56;4992378;28;20892;-83
2021/06/20 16:17:11;;;;;;;24.47;5.83;;;;;;;29.24;49.29;99373.47;4992241;28;20442;-83
2021/06/20 16:19:36;;;;;;;19.30;5.40;;;;;;;29.26;50.45;99376.72;4990789;28;20433;-84
2021/06/20 16:22:02;;;;;;;23.33;5.23;;;;;;;29.24;50.40;99373.47;4991297;28;20456;-84
2021/06/20 16:24:27;;;;;;;18.73;5.05;;;;;;;29.15;51.02;99373.06;4991795;28;20414;-83
2021/06/20 16:26:53;;;;;;;16.92;4.63;;;;;;;29.08;52.64;99377.84;4975909;28;20496;-84
2021/06/20 16:29:18;;;;;;;20.53;5.40;;;;;;;28.99;53.68;99374.63;4992165;28;20386;-83
2021/06/20 16:31:43;;;;;;;20.87;5.37;;;;;;;28.89;55.16;99367.03;4992461;28;20462;-84
2021/06/20 16:34:09;;;;;;;21.23;5.30;;;;;;;28.79;55.38;99371.38;4991526;28;20422;-84
2021/06/20 16:36:34;;;;;;;22.07;5.70;;;;;;;28.64;54.56;99369.69;4992433;28;20401;-83
2021/06/20 16:38:59;;;;;;;18.47;5.03;;;;;;;28.49;56.37;99366.03;4991785;28;20782;-84
2021/06/20 16:41:25;;;;;;;27.90;5.77;;;;;;;28.35;57.61;99363.19;4991126;28;20410;-84
2021/06/20 16:43:50;;;;;;;23.35;6.43;;;;;;;28.27;58.09;99370.72;4991618;28;20508;-84
2021/06/20 16:46:16;;;;;;;27.27;6.15;;;;;;;28.21;58.85;99368.69;4992155;28;20916;-83
2021/06/20 16:48:41;;;;;;;15.83;4.70;;;;;;;28.21;59.26;99368.69;4989992;28;20414;-83
2021/06/20 16:51:07;;;;;;;20.00;5.63;;;;;;;28.14;59.71;99366.66;4992111;28;20754;-83
2021/06/20 16:53:32;;;;;;;22.00;5.07;;;;;;;28.10;60.51;99365.81;4991434;28;20525;-83
2021/06/20 16:55:57;;;;;;;17.63;5.40;;;;;;;28.06;61.62;99376.13;4992166;28;20398;-83
2021/06/20 16:58:24;;;;;;;15.45;5.38;;;;;;;27.91;62.18;99388.34;4992137;28;20481;-83
2021/06/20 17:00:49;;;;;;;18.35;5.60;;;;;;;27.86;62.48;99391.47;4991643;28;20949;-83
2021/06/20 17:03:14;;;;;;;13.23;5.67;;;;;;;27.79;63.18;99391.44;4991383;28;20513;-83
2021/06/20 17:05:40;;;;;;;15.43;5.93;;;;;;;27.72;63.70;99386.59;4991919;28;20751;-83
2021/06/20 17:08:05;;;;;;;13.18;5.40;;;;;;;27.61;63.68;99391.28;4992104;28;20449;-83
2021/06/20 17:10:34;;;;;;;11.65;5.35;;;;;;;27.49;64.48;99390.78;4991997;28;20485;-83
2021/06/20 17:13:00;;;;;;;11.13;5.25;;;;;;;27.35;64.99;99391.41;4991865;28;20418;-83
2021/06/20 17:15:25;;;;;;;14.83;5.67;;;;;;;27.23;65.31;99403.59;5024877;28;20418;-83
2021/06/20 17:17:51;;;;;;;16.13;5.37;;;;;;;27.19;65.75;99415.88;4994765;28;20422;-83
2021/06/20 17:20:16;;;;;;;16.00;5.80;;;;;;;27.20;65.99;99428.59;4995749;28;20398;-83
2021/06/20 17:22:42;;;;;;;12.63;5.73;;;;;;;27.02;66.09;99450.63;4995788;28;20464;-83
2021/06/20 17:25:10;;;;;;;16.70;6.28;;;;;;;26.96;66.49;99443.00;4995398;28;20485;-83
2021/06/20 17:27:35;;;;;;;14.43;5.25;;;;;;;26.89;66.79;99429.81;4994870;28;20418;-83
2021/06/20 17:30:00;;;;;;;15.73;6.50;;;;;;;26.92;66.75;99417.94;4995822;28;20398;-83
2021/06/20 17:32:26;;;;;;;12.53;5.53;;;;;;;26.82;66.33;99421.38;4994286;28;20882;-83
2021/06/20 17:34:51;;;;;;;14.77;5.95;;;;;;;26.76;66.47;99417.31;4994679;28;20422;-83
2021/06/20 17:37:17;;;;;;;16.30;6.77;;;;;;;26.75;66.56;99415.72;4995610;28;20869;-83
2021/06/20 17:39:43;;;;;;;13.20;7.90;;;;;;;26.71;66.76;99415.66;4995514;28;20394;-83
2021/06/20 17:42:08;;;;;;;16.52;7.93;;;;;;;26.73;66.95;99409.72;4995563;28;20383;-83
2021/06/20 17:44:34;;;;;;;12.87;5.77;;;;;;;26.74;65.98;99398.22;4995065;28;20755;-83
2021/06/20 17:47:00;;;;;;;19.80;6.97;;;;;;;26.69;66.17;99387.44;4993740;28;20411;-83
2021/06/20 17:49:25;;;;;;;19.30;6.60;;;;;;;26.67;66.58;99394.56;4995495;28;20391;-83
2021/06/20 17:51:52;;;;;;;16.43;5.87;;;;;;;26.62;66.69;99381.00;5026971;28;20836;-83
2021/06/20 17:54:18;;;;;;;14.32;6.30;;;;;;;26.58;67.03;99377.38;5026236;28;20473;-83
2021/06/20 17:56:43;;;;;;;18.58;6.43;;;;;;;26.56;67.51;99360.28;4994334;28;20422;-83
2021/06/20 17:59:09;;;;;;;18.03;6.70;;;;;;;26.51;67.25;99338.41;4995112;28;20401;-83
2021/06/20 18:01:35;;;;;;;18.90;6.23;;;;;;;26.43;67.71;99314.47;4995085;28;20446;-84
2021/06/20 18:04:00;;;;;;;18.87;6.87;;;;;;;26.33;68.23;99293.72;4991969;28;20406;-86
2021/06/20 18:06:31;;;;;;;23.20;7.30;;;;;;;26.26;68.01;99288.06;4992125;28;20420;-87
2021/06/20 18:08:56;;;;;;;21.45;6.60;;;;;;;26.10;67.77;99301.31;4993195;28;20445;-82
2021/06/20 18:11:22;;;;;;;21.27;6.40;;;;;;;25.99;68.10;99298.38;4994546;28;20825;-82
2021/06/20 18:13:47;;;;;;;17.73;6.40;;;;;;;25.92;68.28;99298.28;4992992;28;20432;-82
2021/06/20 18:16:12;;;;;;;23.20;6.20;;;;;;;25.82;68.09;99296.16;4989331;28;20428;-83
2021/06/20 18:18:38;;;;;;;14.33;6.00;;;;;;;25.80;68.47;99284.63;4989837;28;20410;-82
2021/06/20 18:21:04;;;;;;;23.60;6.60;;;;;;;25.74;68.82;99292.50;4992705;28;20896;-84
2021/06/20 18:23:30;;;;;;;16.67;6.15;;;;;;;25.76;68.46;99294.88;4994300;28;20485;-84
2021/06/20 18:25:55;;;;;;;17.33;6.03;;;;;;;25.84;68.57;99295.78;4993163;28;20489;-85
2021/06/20 18:28:20;;;;;;;23.30;6.57;;;;;;;25.80;68.07;99312.38;4994335;28;20941;-84
2021/06/20 18:30:46;;;;;;;19.97;7.10;;;;;;;25.76;68.64;99309.56;4994293;28;20422;-84
2021/06/20 18:33:12;;;;;;;19.63;6.57;;;;;;;25.71;68.96;99317.41;4994755;28;20422;-84
2021/06/20 18:35:37;;;;;;;21.33;6.50;;;;;;;25.64;69.26;99334.75;4991994;28;20417;-84
2021/06/20 18:38:03;;;;;;;23.00;7.67;;;;;;;25.61;69.85;99351.34;4992652;28;20421;-84
2021/06/20 18:40:28;;;;;;;22.98;6.97;;;;;;;25.55;70.00;99350.84;4992101;28;20481;-84
2021/06/20 18:42:53;;;;;;;22.17;7.20;;;;;;;25.50;70.41;99370.56;5006053;28;20449;-84
2021/06/20 18:45:19;;;;;;;24.37;7.17;;;;;;;25.46;70.32;99382.72;4986888;28;20818;-83
2021/06/20 18:47:44;;;;;;;22.67;7.13;;;;;;;25.39;70.44;99411.16;4987178;28;20438;-83
2021/06/20 18:50:11;;;;;;;20.23;6.97;;;;;;;25.31;70.86;99459.34;4993424;28;20398;-84
2021/06/20 18:52:36;;;;;;;23.00;7.23;;;;;;;25.26;70.80;99535.31;4991508;28;20920;-84
2021/06/20 18:55:03;;;;;;;21.67;6.90;;;;;;;25.16;71.20;99549.75;4993719;28;20534;-84
2021/06/20 18:57:35;;;;;;;23.10;5.60;;;;;;;24.56;70.86;99559.47;4988786;28;20791;-88
2021/06/20 19:00:04;;;;;;;17.88;5.72;;;;;;;24.15;72.01;99582.97;4991810;28;20493;-86
2021/06/20 19:02:29;;;;;;;18.73;5.30;;;;;;;23.58;72.56;99596.38;5006646;28;20418;-87
2021/06/20 19:04:55;;;;;;;22.53;4.23;;;;;;;22.74;75.08;99593.44;4989146;28;20500;-83
2021/06/20 19:07:20;;;;;;;20.37;4.07;;;;;;;21.88;79.30;99614.88;4992236;28;20411;-85
2021/06/20 19:09:47;;;;;;;7.10;2.87;;;;;;;21.32;81.48;99643.94;4992601;28;21028;-87
2021/06/20 19:12:13;;;;;;;41.42;4.50;;;;;;;21.18;80.58;99666.22;4993957;28;20402;-87
2021/06/20 19:14:39;;;;;;;29.90;4.00;;;;;;;21.00;82.98;99657.25;4991292;28;20759;-87
2021/06/20 19:17:05;;;;;;;14.82;2.97;;;;;;;20.87;82.99;99660.22;4992892;28;20406;-88
2021/06/20 19:19:31;;;;;;;19.35;3.72;;;;;;;20.96;82.34;99660.97;4990319;28;20441;-89
2021/06/20 19:21:56;;;;;;;26.73;3.73;;;;;;;21.01;82.54;99650.56;4993239;28;20400;-90
2021/06/20 19:24:21;;;;;;;20.52;3.45;;;;;;;20.85;82.52;99638.53;4992463;28;20406;-90
2021/06/20 19:26:47;;;;;;;15.20;3.53;;;;;;;20.87;82.11;99618.94;4991526;28;20414;-91
2021/06/20 19:29:12;;;;;;;15.60;2.93;;;;;;;20.75;81.32;99605.06;5007917;28;20402;-91
2021/06/20 19:31:37;;;;;;;12.60;2.63;;;;;;;20.73;82.10;99585.31;4993149;28;20414;-91
2021/06/20 19:34:07;;;;;;;9.52;2.80;;;;;;;20.77;82.26;99578.00;4989239;28;20418;-92
2021/06/20 19:36:33;;;;;;;14.48;3.72;;;;;;;20.73;81.72;99569.59;4997799;28;20404;-90
2021/06/20 19:38:59;;;;;;;10.97;2.80;;;;;;;20.93;81.84;99568.00;4994274;28;20472;-92
2021/06/20 19:41:25;;;;;;;13.90;2.78;;;;;;;21.01;80.56;99565.19;4995286;28;20404;-93
2021/06/20 19:43:57;;;;;;;16.85;2.70;;;;;;;20.97;80.80;99561.50;5005511;28;20465;-93
2021/06/20 19:46:28;;;;;;;10.07;2.70;;;;;;;20.89;80.12;99545.84;4990837;28;20493;-92
2021/06/20 19:48:53;;;;;;;11.55;3.40;;;;;;;20.80;79.97;99555.31;4995440;28;20424;-91
2021/06/20 19:51:19;;;;;;;12.68;3.35;;;;;;;20.90;80.57;99541.13;4993877;28;20890;-91
2021/06/20 19:53:45;;;;;;;12.97;2.97;;;;;;;20.95;81.03;99544.50;4999776;28;20419;-92
2021/06/20 19:56:10;;;;;;;12.50;2.60;;;;;;;20.98;80.18;99546.56;5000883;28;20808;-91
2021/06/20 19:58:36;;;;;;;11.03;2.63;;;;;;;21.00;80.09;99549.00;4995646;28;20412;-93
2021/06/20 20:01:01;;;;;;;12.55;2.88;;;;;;;21.07;80.01;99536.31;5002397;28;20446;-91
2021/06/20 20:03:26;;;;;;;14.57;3.47;;;;;;;21.15;79.25;99526.38;4995805;28;20985;-93
2021/06/20 20:05:52;;;;;;;11.87;3.17;;;;;;;21.22;79.45;99512.88;4999087;28;20410;-94
2021/06/20 20:08:17;;;;;;;12.83;3.00;;;;;;;21.29;79.66;99518.63;4996073;28;20403;-91
2021/06/20 20:10:43;;;;;;;12.90;2.60;;;;;;;21.34;79.84;99534.94;4996931;28;20416;-93
2021/06/20 20:13:09;;;;;;;8.27;2.80;;;;;;;21.31;79.92;99524.59;4999151;28;20432;-91
2021/06/20 20:15:35;;;;;;;11.52;2.17;;;;;;;21.30;79.52;99517.50;4992745;28;20424;-92
2021/06/20 20:18:01;;;;;;;14.63;2.77;;;;;;;21.30;79.42;99489.94;4999565;28;20409;-89
2021/06/20 20:20:26;;;;;;;12.63;2.63;;;;;;;21.30;79.50;99478.13;5008105;28;20516;-91
2021/06/20 20:22:54;;;;;;;9.10;2.17;;;;;;;21.30;79.54;99467.91;4994652;28;20414;-91